Gorst, Washington
Current Conditions -  °F | °C
As of 2:55 PM on Thursday 27 Nov 2014 (Local Time) from KPWT Reporting Station
Overcast Overcast  
Wind Chill: 54°   Ceiling: 1200
Heat Index: 54°   Visibility: 10mi
Dew Point: 54°   Wind: 16mph
Humidity: 100%   Direction: 180°S
Pressure: 29.78"   Gusts: 22mph
Location:  47.5661°N, 122.637°W
Report Text: KPWT 272255Z AUTO 18014G19KT 10SM FEW005 BKN012 OVC021 12/12 A2978 RMK AO1 P0006
Loading
Personal Weather Stations






























Interactive Weather Map New forecast layout! Learn more

10-Day Weather Forecast

Advertisements
Track Severe Weather on mobile